Private Wetterstation Sandau
Wetterdaten: Montag, 28.05.2012
Datum Zeit Temp. A. Feuchte A. Luftdruck Regen Wind Richtung Richtung Taupunkt Windchill
28.05.2012 00:01 16,6 C 55 % 1018,0 hPa 0,0 l/m 3,2 km/h (1 Bft) O 90 7,5 C 16,6 C
28.05.2012 00:06 16,4 C 55 % 1018,0 hPa 0,0 l/m 4,3 km/h (1 Bft) O 90 7,3 C 16,4 C
28.05.2012 00:11 16,4 C 55 % 1017,9 hPa 0,0 l/m 2,2 km/h (1 Bft) O-NO 67 7,3 C 16,4 C
28.05.2012 00:16 16,3 C 55 % 1018,0 hPa 0,0 l/m 4,0 km/h (1 Bft) O-NO 67 7,2 C 16,3 C
28.05.2012 00:21 16,2 C 55 % 1017,9 hPa 0,0 l/m 3,2 km/h (1 Bft) O 90 7,2 C 16,2 C
28.05.2012 00:26 16,1 C 55 % 1018,0 hPa 0,0 l/m 0,0 km/h (0 Bft) O 90 7,1 C 16,1 C
28.05.2012 00:31 15,9 C 55 % 1018,0 hPa 0,0 l/m 2,2 km/h (1 Bft) O 90 6,9 C 15,9 C
28.05.2012 00:36 15,8 C 56 % 1017,9 hPa 0,0 l/m 2,9 km/h (1 Bft) O-NO 67 7,0 C 15,8 C
28.05.2012 00:41 15,6 C 56 % 1017,9 hPa 0,0 l/m 2,9 km/h (1 Bft) O 90 6,9 C 15,6 C
28.05.2012 00:46 15,6 C 56 % 1017,8 hPa 0,0 l/m 2,5 km/h (1 Bft) O 90 6,9 C 15,6 C
28.05.2012 00:51 15,5 C 56 % 1017,8 hPa 0,0 l/m 9,4 km/h (2 Bft) O 90 6,8 C 15,5 C
28.05.2012 00:56 15,4 C 55 % 1017,8 hPa 0,0 l/m 4,0 km/h (1 Bft) O-NO 67 6,4 C 15,4 C
28.05.2012 01:01 15,3 C 55 % 1017,7 hPa 0,0 l/m 3,2 km/h (1 Bft) O-SO 112 6,3 C 15,3 C
28.05.2012 01:06 15,3 C 55 % 1017,7 hPa 0,0 l/m 5,0 km/h (1 Bft) O 90 6,3 C 15,3 C
28.05.2012 01:11 15,2 C 55 % 1017,8 hPa 0,0 l/m 2,9 km/h (1 Bft) O-NO 67 6,2 C 15,2 C
28.05.2012 01:16 15,1 C 55 % 1017,6 hPa 0,0 l/m 4,7 km/h (1 Bft) O-NO 67 6,1 C 15,1 C
28.05.2012 01:21 14,9 C 55 % 1017,5 hPa 0,0 l/m 4,0 km/h (1 Bft) O-SO 112 5,9 C 14,9 C
28.05.2012 01:26 14,9 C 55 % 1017,5 hPa 0,0 l/m 0,0 km/h (0 Bft) O-NO 67 5,9 C 14,9 C
28.05.2012 01:31 14,9 C 55 % 1017,5 hPa 0,0 l/m 4,0 km/h (1 Bft) O-NO 67 5,9 C 14,9 C
28.05.2012 01:36 14,9 C 55 % 1017,4 hPa 0,0 l/m 2,5 km/h (1 Bft) O-NO 67 5,9 C 14,9 C
28.05.2012 01:41 14,9 C 55 % 1017,5 hPa 0,0 l/m 0,0 km/h (0 Bft) O 90 5,9 C 14,9 C
28.05.2012 01:46 14,9 C 55 % 1017,4 hPa 0,0 l/m 5,4 km/h (1 Bft) O-SO 112 5,9 C 14,9 C
28.05.2012 01:51 14,8 C 55 % 1017,4 hPa 0,0 l/m 4,0 km/h (1 Bft) O 90 5,8 C 14,8 C
28.05.2012 01:56 14,8 C 55 % 1017,4 hPa 0,0 l/m 2,9 km/h (1 Bft) O-NO 67 5,8 C 14,8 C
28.05.2012 02:01 14,7 C 56 % 1017,4 hPa 0,0 l/m 2,2 km/h (1 Bft) O-SO 112 6,0 C 14,7 C
28.05.2012 02:06 14,6 C 56 % 1017,3 hPa 0,0 l/m 4,0 km/h (1 Bft) O-SO 112 5,9 C 14,6 C
28.05.2012 02:11 14,5 C 56 % 1017,3 hPa 0,0 l/m 3,6 km/h (1 Bft) O 90 5,8 C 14,5 C
28.05.2012 02:16 14,5 C 56 % 1017,1 hPa 0,0 l/m 0,0 km/h (0 Bft) O 90 5,8 C 14,5 C
28.05.2012 02:21 14,4 C 57 % 1017,2 hPa 0,0 l/m 4,3 km/h (1 Bft) O-SO 112 6,0 C 14,4 C
28.05.2012 02:26 14,4 C 56 % 1017,3 hPa 0,0 l/m 4,3 km/h (1 Bft) O 90 5,7 C 14,4 C
28.05.2012 02:31 14,3 C 57 % 1017,2 hPa 0,0 l/m 2,5 km/h (1 Bft) O 90 5,9 C 14,3 C
28.05.2012 02:36 14,3 C 57 % 1017,2 hPa 0,0 l/m 5,8 km/h (2 Bft) O-NO 67 5,9 C 14,3 C
28.05.2012 02:41 14,3 C 57 % 1017,1 hPa 0,0 l/m 4,7 km/h (1 Bft) O 90 5,9 C 14,3 C
28.05.2012 02:46 14,2 C 58 % 1017,1 hPa 0,0 l/m 8,6 km/h (2 Bft) O-NO 67 6,1 C 14,2 C
28.05.2012 02:51 14,2 C 58 % 1017,0 hPa 0,0 l/m 6,5 km/h (2 Bft) O 90 6,1 C 14,2 C
28.05.2012 02:56 14,1 C 58 % 1017,0 hPa 0,0 l/m 3,6 km/h (1 Bft) O-SO 112 6,0 C 14,1 C
28.05.2012 03:01 14,1 C 58 % 1017,0 hPa 0,0 l/m 3,6 km/h (1 Bft) O-NO 67 6,0 C 14,1 C
28.05.2012 03:06 14,1 C 59 % 1016,8 hPa 0,0 l/m 5,0 km/h (1 Bft) O-SO 112 6,2 C 14,1 C
28.05.2012 03:11 14,1 C 59 % 1016,9 hPa 0,0 l/m 5,8 km/h (2 Bft) O-NO 67 6,2 C 14,1 C
28.05.2012 03:16 14,1 C 59 % 1016,8 hPa 0,0 l/m 2,5 km/h (1 Bft) O-SO 112 6,2 C 14,1 C
28.05.2012 03:21 14,1 C 59 % 1016,8 hPa 0,0 l/m 4,7 km/h (1 Bft) O-SO 112 6,2 C 14,1 C
28.05.2012 03:26 14,1 C 59 % 1016,8 hPa 0,0 l/m 1,8 km/h (1 Bft) O-SO 112 6,2 C 14,1 C
28.05.2012 03:31 14,2 C 59 % 1016,7 hPa 0,0 l/m 3,6 km/h (1 Bft) O-NO 67 6,3 C 14,2 C
28.05.2012 03:36 14,2 C 59 % 1016,6 hPa 0,0 l/m 6,5 km/h (2 Bft) O-NO 67 6,3 C 14,2 C
28.05.2012 03:41 14,2 C 59 % 1016,6 hPa 0,0 l/m 0,0 km/h (0 Bft) O-NO 67 6,3 C 14,2 C
28.05.2012 03:46 14,2 C 59 % 1016,6 hPa 0,0 l/m 7,2 km/h (2 Bft) O-SO 112 6,3 C 14,2 C
28.05.2012 03:51 14,2 C 59 % 1016,5 hPa 0,0 l/m 2,9 km/h (1 Bft) O-NO 67 6,3 C 14,2 C
28.05.2012 03:56 14,2 C 60 % 1016,5 hPa 0,0 l/m 1,4 km/h (1 Bft) O 90 6,5 C 14,2 C
28.05.2012 04:01 14,2 C 60 % 1016,5 hPa 0,0 l/m 2,2 km/h (1 Bft) O-NO 67 6,5 C 14,2 C
28.05.2012 04:06 14,2 C 60 % 1016,4 hPa 0,0 l/m 4,7 km/h (1 Bft) O-SO 112 6,5 C 14,2 C
28.05.2012 04:11 14,2 C 60 % 1016,4 hPa 0,0 l/m 4,0 km/h (1 Bft) O-SO 112 6,5 C 14,2 C
28.05.2012 04:16 14,1 C 60 % 1016,4 hPa 0,0 l/m 3,2 km/h (1 Bft) N-NO 22 6,5 C 14,1 C
28.05.2012 04:21 14,1 C 60 % 1016,4 hPa 0,0 l/m 6,1 km/h (2 Bft) O 90 6,5 C 14,1 C
28.05.2012 04:26 14,1 C 60 % 1016,4 hPa 0,0 l/m 4,7 km/h (1 Bft) O 90 6,5 C 14,1 C
28.05.2012 04:31 14,1 C 60 % 1016,4 hPa 0,0 l/m 2,9 km/h (1 Bft) O-NO 67 6,5 C 14,1 C
28.05.2012 04:36 14,1 C 60 % 1016,4 hPa 0,0 l/m 0,0 km/h (0 Bft) O 90 6,5 C 14,1 C
28.05.2012 04:41 14,1 C 60 % 1016,3 hPa 0,0 l/m 0,0 km/h (0 Bft) O 90 6,5 C 14,1 C
28.05.2012 04:46 14,1 C 61 % 1016,5 hPa 0,0 l/m 1,1 km/h (1 Bft) O 90 6,7 C 14,1 C
28.05.2012 04:51 14,1 C 61 % 1016,5 hPa 0,0 l/m 0,0 km/h (0 Bft) O-NO 67 6,7 C 14,1 C
28.05.2012 04:56 14,1 C 61 % 1016,5 hPa 0,0 l/m 3,2 km/h (1 Bft) NO 45 6,7 C 14,1 C
28.05.2012 05:01 14,1 C 61 % 1016,5 hPa 0,0 l/m 5,0 km/h (1 Bft) O-NO 67 6,7 C 14,1 C
28.05.2012 05:06 14,1 C 61 % 1016,5 hPa 0,0 l/m 2,2 km/h (1 Bft) O-NO 67 6,7 C 14,1 C
28.05.2012 05:11 14,1 C 61 % 1016,4 hPa 0,0 l/m 3,6 km/h (1 Bft) O-SO 112 6,7 C 14,1 C
28.05.2012 05:16 14,1 C 61 % 1016,4 hPa 0,0 l/m 3,2 km/h (1 Bft) O-NO 67 6,7 C 14,1 C
28.05.2012 05:21 14,1 C 61 % 1016,4 hPa 0,0 l/m 0,0 km/h (0 Bft) O-NO 67 6,7 C 14,1 C
28.05.2012 05:26 13,9 C 61 % 1016,5 hPa 0,0 l/m 2,2 km/h (1 Bft) O 90 6,5 C 13,9 C
28.05.2012 05:31 13,9 C 61 % 1016,4 hPa 0,0 l/m 2,5 km/h (1 Bft) O 90 6,5 C 13,9 C
28.05.2012 05:36 14,1 C 61 % 1016,5 hPa 0,0 l/m 0,0 km/h (0 Bft) O 90 6,7 C 14,1 C
28.05.2012 05:41 14,2 C 62 % 1016,5 hPa 0,0 l/m 1,1 km/h (1 Bft) O-NO 67 7,0 C 14,2 C
28.05.2012 05:46 14,9 C 62 % 1016,5 hPa 0,0 l/m 0,0 km/h (0 Bft) O 90 7,7 C 14,9 C
28.05.2012 05:51 15,4 C 60 % 1016,4 hPa 0,0 l/m 0,0 km/h (0 Bft) O-NO 67 7,7 C 15,4 C
28.05.2012 05:56 15,9 C 59 % 1016,5 hPa 0,0 l/m 0,0 km/h (0 Bft) O-NO 67 7,9 C 15,9 C
28.05.2012 06:01 16,4 C 58 % 1016,4 hPa 0,0 l/m 0,0 km/h (0 Bft) O 90 8,1 C 16,4 C
28.05.2012 06:06 16,8 C 56 % 1016,5 hPa 0,0 l/m 1,4 km/h (1 Bft) O-SO 112 8,0 C 16,8 C
28.05.2012 06:11 16,8 C 55 % 1016,5 hPa 0,0 l/m 1,1 km/h (1 Bft) O-SO 112 7,7 C 16,8 C
28.05.2012 06:16 16,6 C 55 % 1016,5 hPa 0,0 l/m 0,0 km/h (0 Bft) O-SO 112 7,5 C 16,6 C
28.05.2012 06:21 16,8 C 55 % 1016,4 hPa 0,0 l/m 0,0 km/h (0 Bft) O-SO 112 7,7 C 16,8 C
28.05.2012 06:26 16,9 C 54 % 1016,4 hPa 0,0 l/m 0,0 km/h (0 Bft) O-NO 67 7,5 C 16,9 C
28.05.2012 06:31 16,9 C 54 % 1016,3 hPa 0,0 l/m 0,0 km/h (0 Bft) O-NO 67 7,5 C 16,9 C
28.05.2012 06:36 17,1 C 54 % 1016,4 hPa 0,0 l/m 0,0 km/h (0 Bft) O-NO 67 7,7 C 17,1 C
28.05.2012 06:41 17,1 C 54 % 1016,4 hPa 0,0 l/m 1,1 km/h (1 Bft) O-NO 67 7,7 C 17,1 C
28.05.2012 06:46 17,1 C 53 % 1016,3 hPa 0,0 l/m 0,0 km/h (0 Bft) O-SO 112 7,4 C 17,1 C
28.05.2012 06:51 17,2 C 53 % 1016,2 hPa 0,0 l/m 0,0 km/h (0 Bft) O 90 7,5 C 17,2 C
28.05.2012 06:56 17,3 C 53 % 1016,3 hPa 0,0 l/m 0,0 km/h (0 Bft) S 180 7,6 C 17,3 C
28.05.2012 07:01 17,7 C 53 % 1016,1 hPa 0,0 l/m 3,2 km/h (1 Bft) S 180 8,0 C 17,7 C
28.05.2012 07:06 18,0 C 52 % 1016,1 hPa 0,0 l/m 0,0 km/h (0 Bft) O-SO 112 8,0 C 18,0 C
28.05.2012 07:11 18,2 C 51 % 1015,9 hPa 0,0 l/m 0,0 km/h (0 Bft) O 90 7,9 C 18,2 C
28.05.2012 07:16 18,0 C 51 % 1016,0 hPa 0,0 l/m 4,3 km/h (1 Bft) O 90 7,7 C 18,0 C
28.05.2012 07:21 17,9 C 51 % 1016,2 hPa 0,0 l/m 1,4 km/h (1 Bft) O 90 7,6 C 17,9 C
28.05.2012 07:26 18,1 C 51 % 1016,1 hPa 0,0 l/m 0,0 km/h (0 Bft) O-NO 67 7,8 C 18,1 C
28.05.2012 07:31 18,1 C 51 % 1016,1 hPa 0,0 l/m 1,8 km/h (1 Bft) O-NO 67 7,8 C 18,1 C
28.05.2012 07:36 18,1 C 51 % 1016,0 hPa 0,0 l/m 0,0 km/h (0 Bft) O 90 7,8 C 18,1 C
28.05.2012 07:41 18,1 C 51 % 1016,0 hPa 0,0 l/m 0,0 km/h (0 Bft) SO 135 7,8 C 18,1 C
28.05.2012 07:46 18,2 C 51 % 1016,1 hPa 0,0 l/m 2,5 km/h (1 Bft) NO 45 7,9 C 18,2 C
28.05.2012 07:51 18,1 C 51 % 1016,1 hPa 0,0 l/m 0,0 km/h (0 Bft) O-NO 67 7,8 C 18,1 C
28.05.2012 07:56 18,2 C 50 % 1016,0 hPa 0,0 l/m 2,5 km/h (1 Bft) NO 45 7,6 C 18,2 C
28.05.2012 08:01 18,2 C 50 % 1016,0 hPa 0,0 l/m 5,0 km/h (1 Bft) N-NO 22 7,6 C 18,2 C
28.05.2012 08:06 18,3 C 50 % 1015,9 hPa 0,0 l/m 3,2 km/h (1 Bft) O-SO 112 7,7 C 18,3 C
28.05.2012 08:11 18,4 C 50 % 1016,0 hPa 0,0 l/m 5,4 km/h (1 Bft) O 90 7,8 C 18,4 C
28.05.2012 08:16 18,6 C 50 % 1015,9 hPa 0,0 l/m 3,2 km/h (1 Bft) O 90 8,0 C 18,6 C
28.05.2012 08:21 18,8 C 50 % 1015,9 hPa 0,0 l/m 1,8 km/h (1 Bft) O-SO 112 8,2 C 18,8 C
28.05.2012 08:26 18,9 C 49 % 1016,0 hPa 0,0 l/m 0,0 km/h (0 Bft) NO 45 7,9 C 18,9 C
28.05.2012 08:31 19,1 C 48 % 1016,1 hPa 0,0 l/m 0,0 km/h (0 Bft) SO 135 7,8 C 19,1 C
28.05.2012 08:36 19,3 C 48 % 1015,9 hPa 0,0 l/m 4,0 km/h (1 Bft) O-SO 112 8,0 C 19,3 C
28.05.2012 08:41 19,3 C 48 % 1016,0 hPa 0,0 l/m 2,2 km/h (1 Bft) S-SO 157 8,0 C 19,3 C
28.05.2012 08:46 19,5 C 48 % 1016,0 hPa 0,0 l/m 4,0 km/h (1 Bft) O-NO 67 8,2 C 19,5 C
28.05.2012 08:51 19,6 C 47 % 1016,1 hPa 0,0 l/m 5,0 km/h (1 Bft) SO 135 8,0 C 19,6 C
28.05.2012 08:56 19,7 C 47 % 1016,0 hPa 0,0 l/m 5,0 km/h (1 Bft) O-SO 112 8,1 C 19,7 C
28.05.2012 09:01 19,9 C 47 % 1016,1 hPa 0,0 l/m 0,0 km/h (0 Bft) SO 135 8,3 C 19,9 C
28.05.2012 09:06 20,1 C 46 % 1015,9 hPa 0,0 l/m 4,7 km/h (1 Bft) O-NO 67 8,1 C 20,1 C
28.05.2012 09:11 20,1 C 45 % 1016,1 hPa 0,0 l/m 5,4 km/h (1 Bft) O 90 7,8 C 20,1 C
28.05.2012 09:16 20,1 C 45 % 1016,0 hPa 0,0 l/m 2,9 km/h (1 Bft) SO 135 7,8 C 20,1 C
28.05.2012 09:21 20,2 C 45 % 1016,0 hPa 0,0 l/m 2,9 km/h (1 Bft) SO 135 7,9 C 20,2 C
28.05.2012 09:26 20,3 C 45 % 1016,1 hPa 0,0 l/m 0,0 km/h (0 Bft) SO 135 8,0 C 20,3 C
28.05.2012 09:31 20,5 C 45 % 1016,0 hPa 0,0 l/m 4,3 km/h (1 Bft) O 90 8,2 C 20,5 C
28.05.2012 09:36 20,8 C 44 % 1015,9 hPa 0,0 l/m 5,4 km/h (1 Bft) O-SO 112 8,1 C 20,8 C
28.05.2012 09:41 20,8 C 44 % 1015,9 hPa 0,0 l/m 4,0 km/h (1 Bft) O 90 8,1 C 20,8 C
28.05.2012 09:46 20,9 C 44 % 1015,9 hPa 0,0 l/m 1,1 km/h (1 Bft) O-NO 67 8,2 C 20,9 C
28.05.2012 09:51 21,0 C 44 % 1015,8 hPa 0,0 l/m 6,8 km/h (2 Bft) SO 135 8,3 C 21,0 C
28.05.2012 09:56 21,2 C 43 % 1015,8 hPa 0,0 l/m 0,0 km/h (0 Bft) O-SO 112 8,1 C 21,2 C
28.05.2012 10:01 21,4 C 43 % 1015,8 hPa 0,0 l/m 0,0 km/h (0 Bft) S-SO 157 8,3 C 21,4 C
28.05.2012 10:06 21,6 C 42 % 1015,8 hPa 0,0 l/m 4,7 km/h (1 Bft) O-SO 112 8,1 C 21,6 C
28.05.2012 10:11 21,7 C 42 % 1015,8 hPa 0,0 l/m 2,2 km/h (1 Bft) S-SO 157 8,2 C 21,7 C
28.05.2012 10:16 21,8 C 42 % 1015,7 hPa 0,0 l/m 1,8 km/h (1 Bft) S-SW 202 8,3 C 21,8 C
28.05.2012 10:21 22,2 C 41 % 1015,7 hPa 0,0 l/m 2,5 km/h (1 Bft) N-NO 22 8,3 C 22,2 C
28.05.2012 10:26 22,2 C 41 % 1015,7 hPa 0,0 l/m 0,0 km/h (0 Bft) W-NW 292 8,3 C 22,2 C
28.05.2012 10:31 22,4 C 41 % 1015,7 hPa 0,0 l/m 3,6 km/h (1 Bft) W-SW 247 8,5 C 22,4 C
28.05.2012 10:36 22,5 C 41 % 1015,6 hPa 0,0 l/m 1,4 km/h (1 Bft) N 360 8,6 C 22,5 C
28.05.2012 10:41 22,4 C 41 % 1015,4 hPa 0,0 l/m 5,0 km/h (1 Bft) W-SW 247 8,5 C 22,4 C
28.05.2012 10:46 22,6 C 41 % 1015,5 hPa 0,0 l/m 2,5 km/h (1 Bft) W-SW 247 8,7 C 22,6 C
28.05.2012 10:51 22,9 C 40 % 1015,5 hPa 0,0 l/m 5,4 km/h (1 Bft) S-SW 202 8,6 C 22,9 C
28.05.2012 10:56 23,0 C 40 % 1015,4 hPa 0,0 l/m 4,3 km/h (1 Bft) W 270 8,7 C 23,0 C
28.05.2012 11:01 23,3 C 40 % 1015,5 hPa 0,0 l/m 3,6 km/h (1 Bft) NW 315 8,9 C 23,3 C
28.05.2012 11:06 23,3 C 39 % 1015,5 hPa 0,0 l/m 3,2 km/h (1 Bft) N-NO 22 8,6 C 23,3 C
28.05.2012 11:11 23,1 C 39 % 1015,4 hPa 0,0 l/m 3,2 km/h (1 Bft) S-SW 202 8,4 C 23,1 C
28.05.2012 11:16 23,3 C 39 % 1015,4 hPa 0,0 l/m 4,7 km/h (1 Bft) N-NW 337 8,6 C 23,3 C
28.05.2012 11:21 23,3 C 38 % 1015,2 hPa 0,0 l/m 5,8 km/h (2 Bft) N-NO 22 8,2 C 23,3 C
28.05.2012 11:26 23,3 C 38 % 1015,2 hPa 0,0 l/m 4,3 km/h (1 Bft) W-NW 292 8,2 C 23,3 C
28.05.2012 11:31 23,5 C 38 % 1015,3 hPa 0,0 l/m 3,2 km/h (1 Bft) W-NW 292 8,4 C 23,5 C
28.05.2012 11:36 23,8 C 38 % 1015,2 hPa 0,0 l/m 0,0 km/h (0 Bft) W-NW 292 8,6 C 23,8 C
28.05.2012 11:41 23,9 C 38 % 1015,2 hPa 0,0 l/m 4,0 km/h (1 Bft) NO 45 8,7 C 23,9 C
28.05.2012 11:46 23,9 C 37 % 1015,0 hPa 0,0 l/m 8,6 km/h (2 Bft) N 360 8,3 C 23,9 C
28.05.2012 11:51 23,6 C 37 % 1015,0 hPa 0,0 l/m 2,2 km/h (1 Bft) N-NW 337 8,0 C 23,6 C
28.05.2012 11:56 23,4 C 37 % 1015,0 hPa 0,0 l/m 0,0 km/h (0 Bft) N-NW 337 7,9 C 23,4 C
28.05.2012 12:01 23,6 C 38 % 1015,0 hPa 0,0 l/m 6,1 km/h (2 Bft) NW 315 8,4 C 23,6 C
28.05.2012 12:06 23,8 C 37 % 1015,0 hPa 0,0 l/m 5,0 km/h (1 Bft) NO 45 8,2 C 23,8 C
28.05.2012 12:11 23,8 C 37 % 1015,0 hPa 0,0 l/m 5,8 km/h (2 Bft) W 270 8,2 C 23,8 C
28.05.2012 12:16 24,1 C 37 % 1014,9 hPa 0,0 l/m 8,3 km/h (2 Bft) S-SW 202 8,5 C 24,1 C
28.05.2012 12:21 24,4 C 37 % 1014,9 hPa 0,0 l/m 2,2 km/h (1 Bft) W 270 8,8 C 24,4 C
28.05.2012 12:26 24,5 C 36 % 1014,9 hPa 0,0 l/m 3,6 km/h (1 Bft) NW 315 8,4 C 24,5 C
28.05.2012 12:31 24,5 C 36 % 1014,9 hPa 0,0 l/m 2,2 km/h (1 Bft) W-SW 247 8,4 C 24,5 C
28.05.2012 12:36 24,4 C 36 % 1014,7 hPa 0,0 l/m 3,6 km/h (1 Bft) SO 135 8,4 C 24,4 C
28.05.2012 12:41 24,5 C 37 % 1014,7 hPa 0,0 l/m 5,0 km/h (1 Bft) W-NW 292 8,8 C 24,5 C
28.05.2012 12:46 24,6 C 37 % 1014,6 hPa 0,0 l/m 1,8 km/h (1 Bft) NW 315 8,9 C 24,6 C
28.05.2012 12:51 24,4 C 36 % 1014,7 hPa 0,0 l/m 0,0 km/h (0 Bft) NW 315 8,4 C 24,4 C
28.05.2012 12:56 24,6 C 37 % 1014,6 hPa 0,0 l/m 5,0 km/h (1 Bft) W 270 8,9 C 24,6 C
28.05.2012 13:01 24,9 C 36 % 1014,6 hPa 0,0 l/m 4,3 km/h (1 Bft) S 180 8,8 C 24,9 C
28.05.2012 13:06 25,1 C 36 % 1014,3 hPa 0,0 l/m 4,3 km/h (1 Bft) W-NW 292 9,0 C 25,1 C
28.05.2012 13:11 25,3 C 36 % 1014,2 hPa 0,0 l/m 0,0 km/h (0 Bft) S-SO 157 9,1 C 25,3 C
28.05.2012 13:16 25,4 C 35 % 1014,4 hPa 0,0 l/m 1,8 km/h (1 Bft) S-SO 157 8,8 C 25,4 C
28.05.2012 13:21 25,3 C 35 % 1014,3 hPa 0,0 l/m 1,4 km/h (1 Bft) N-NW 337 8,7 C 25,3 C
28.05.2012 13:26 25,3 C 36 % 1014,2 hPa 0,0 l/m 4,0 km/h (1 Bft) NW 315 9,1 C 25,3 C
28.05.2012 13:31 25,2 C 35 % 1014,1 hPa 0,0 l/m 2,5 km/h (1 Bft) N 360 8,6 C 25,2 C
28.05.2012 13:36 24,9 C 36 % 1014,2 hPa 0,0 l/m 3,2 km/h (1 Bft) NW 315 8,8 C 24,9 C
28.05.2012 13:41 24,9 C 36 % 1014,1 hPa 0,0 l/m 6,1 km/h (2 Bft) N-NO 22 8,8 C 24,9 C
28.05.2012 13:46 25,1 C 36 % 1013,9 hPa 0,0 l/m 1,8 km/h (1 Bft) W-NW 292 9,0 C 25,1 C
28.05.2012 13:51 25,4 C 36 % 1014,0 hPa 0,0 l/m 1,4 km/h (1 Bft) W-NW 292 9,2 C 25,4 C
28.05.2012 13:56 25,8 C 35 % 1013,9 hPa 0,0 l/m 3,6 km/h (1 Bft) S 180 9,2 C 25,8 C
28.05.2012 14:01 26,1 C 35 % 1013,9 hPa 0,0 l/m 10,4 km/h (2 Bft) W-NW 292 9,4 C 26,1 C
28.05.2012 14:06 26,2 C 34 % 1013,9 hPa 0,0 l/m 8,3 km/h (2 Bft) O-NO 67 9,1 C 26,2 C
28.05.2012 14:11 26,1 C 34 % 1013,9 hPa 0,0 l/m 2,5 km/h (1 Bft) S 180 9,0 C 26,1 C
28.05.2012 14:16 26,2 C 35 % 1013,8 hPa 0,0 l/m 6,5 km/h (2 Bft) W 270 9,5 C 26,2 C
28.05.2012 14:21 26,4 C 35 % 1013,8 hPa 0,0 l/m 9,7 km/h (2 Bft) NW 315 9,7 C 26,4 C
28.05.2012 14:26 26,4 C 34 % 1013,8 hPa 0,0 l/m 2,9 km/h (1 Bft) W 270 9,3 C 26,4 C
28.05.2012 14:31 26,5 C 34 % 1013,8 hPa 0,0 l/m 1,8 km/h (1 Bft) S 180 9,3 C 26,5 C
28.05.2012 14:36 26,4 C 34 % 1013,7 hPa 0,0 l/m 6,1 km/h (2 Bft) O-NO 67 9,3 C 26,4 C
28.05.2012 14:41 25,9 C 34 % 1013,6 hPa 0,0 l/m 6,5 km/h (2 Bft) W 270 8,8 C 25,9 C
28.05.2012 14:46 26,1 C 35 % 1013,6 hPa 0,0 l/m 5,0 km/h (1 Bft) W-NW 292 9,4 C 26,1 C
28.05.2012 14:51 26,1 C 34 % 1013,5 hPa 0,0 l/m 2,2 km/h (1 Bft) N 360 9,0 C 26,1 C
28.05.2012 14:56 26,3 C 34 % 1013,5 hPa 0,0 l/m 12,2 km/h (2 Bft) NO 45 9,2 C 26,3 C
28.05.2012 15:01 26,4 C 32 % 1013,5 hPa 0,0 l/m 7,6 km/h (2 Bft) O-SO 112 8,4 C 26,4 C
28.05.2012 15:06 26,3 C 32 % 1013,5 hPa 0,0 l/m 2,2 km/h (1 Bft) N 360 8,3 C 26,3 C
28.05.2012 15:11 26,4 C 33 % 1013,5 hPa 0,0 l/m 6,1 km/h (2 Bft) NO 45 8,8 C 26,4 C
28.05.2012 15:16 26,3 C 34 % 1013,4 hPa 0,0 l/m 10,1 km/h (2 Bft) S-SW 202 9,2 C 26,3 C
28.05.2012 15:21 26,8 C 34 % 1013,4 hPa 0,0 l/m 10,1 km/h (2 Bft) W-SW 247 9,6 C 26,8 C
28.05.2012 15:26 27,1 C 32 % 1013,4 hPa 0,0 l/m 2,2 km/h (1 Bft) NW 315 9,0 C 27,1 C
28.05.2012 15:31 27,1 C 33 % 1013,1 hPa 0,0 l/m 0,0 km/h (0 Bft) N-NO 22 9,4 C 27,1 C
28.05.2012 15:36 26,8 C 32 % 1013,1 hPa 0,0 l/m 7,2 km/h (2 Bft) NO 45 8,7 C 26,8 C
28.05.2012 15:41 26,4 C 32 % 1013,0 hPa 0,0 l/m 7,9 km/h (2 Bft) NW 315 8,4 C 26,4 C
28.05.2012 15:46 26,7 C 32 % 1013,1 hPa 0,0 l/m 5,4 km/h (1 Bft) O-NO 67 8,6 C 26,7 C
28.05.2012 15:51 26,5 C 32 % 1013,0 hPa 0,0 l/m 4,0 km/h (1 Bft) NO 45 8,4 C 26,5 C
28.05.2012 15:56 26,5 C 32 % 1013,0 hPa 0,0 l/m 7,2 km/h (2 Bft) N-NW 337 8,4 C 26,5 C
28.05.2012 16:01 26,8 C 32 % 1013,0 hPa 0,0 l/m 2,5 km/h (1 Bft) N-NW 337 8,7 C 26,8 C
28.05.2012 16:06 26,9 C 32 % 1012,9 hPa 0,0 l/m 2,9 km/h (1 Bft) W-NW 292 8,8 C 26,9 C
28.05.2012 16:11 27,2 C 31 % 1012,8 hPa 0,0 l/m 4,0 km/h (1 Bft) NO 45 8,6 C 27,2 C
28.05.2012 16:16 26,8 C 32 % 1012,8 hPa 0,0 l/m 4,0 km/h (1 Bft) NO 45 8,7 C 26,8 C
28.05.2012 16:21 26,6 C 32 % 1012,9 hPa 0,0 l/m 2,9 km/h (1 Bft) NO 45 8,5 C 26,6 C
28.05.2012 16:26 26,9 C 34 % 1012,9 hPa 0,0 l/m 2,5 km/h (1 Bft) W-SW 247 9,7 C 26,9 C
28.05.2012 16:31 27,2 C 32 % 1012,7 hPa 0,0 l/m 8,3 km/h (2 Bft) W-NW 292 9,1 C 27,2 C
28.05.2012 16:36 27,5 C 33 % 1012,5 hPa 0,0 l/m 8,3 km/h (2 Bft) W-NW 292 9,8 C 27,5 C
28.05.2012 16:41 27,7 C 31 % 1012,6 hPa 0,0 l/m 5,0 km/h (1 Bft) NO 45 9,0 C 27,7 C
28.05.2012 16:46 27,6 C 31 % 1012,6 hPa 0,0 l/m 4,3 km/h (1 Bft) N-NW 337 8,9 C 27,6 C
28.05.2012 16:51 27,1 C 31 % 1012,5 hPa 0,0 l/m 1,8 km/h (1 Bft) NO 45 8,5 C 27,1 C
28.05.2012 16:56 26,7 C 32 % 1012,6 hPa 0,0 l/m 4,0 km/h (1 Bft) N-NW 337 8,6 C 26,7 C
28.05.2012 17:01 26,9 C 34 % 1012,5 hPa 0,0 l/m 1,4 km/h (1 Bft) NW 315 9,7 C 26,9 C
28.05.2012 17:06 27,2 C 32 % 1012,6 hPa 0,0 l/m 8,3 km/h (2 Bft) W 270 9,1 C 27,2 C
28.05.2012 17:11 27,5 C 33 % 1012,4 hPa 0,0 l/m 3,2 km/h (1 Bft) W-NW 292 9,8 C 27,5 C
28.05.2012 17:16 27,6 C 33 % 1012,4 hPa 0,0 l/m 10,1 km/h (2 Bft) N-NW 337 9,9 C 27,6 C
28.05.2012 17:21 27,4 C 32 % 1012,4 hPa 0,0 l/m 4,3 km/h (1 Bft) NW 315 9,2 C 27,4 C
28.05.2012 17:26 27,5 C 33 % 1012,5 hPa 0,0 l/m 6,1 km/h (2 Bft) N 360 9,8 C 27,5 C
28.05.2012 17:31 27,6 C 33 % 1012,4 hPa 0,0 l/m 0,0 km/h (0 Bft) W 270 9,9 C 27,6 C
28.05.2012 17:36 27,6 C 33 % 1012,5 hPa 0,0 l/m 7,2 km/h (2 Bft) N-NW 337 9,9 C 27,6 C
28.05.2012 17:41 27,2 C 32 % 1012,4 hPa 0,0 l/m 4,0 km/h (1 Bft) NW 315 9,1 C 27,2 C
28.05.2012 17:46 27,4 C 32 % 1012,3 hPa 0,0 l/m 7,6 km/h (2 Bft) W-NW 292 9,2 C 27,4 C
28.05.2012 17:51 27,6 C 33 % 1012,3 hPa 0,0 l/m 6,1 km/h (2 Bft) W 270 9,9 C 27,6 C
28.05.2012 17:56 27,5 C 32 % 1012,3 hPa 0,0 l/m 4,0 km/h (1 Bft) N-NW 337 9,3 C 27,5 C
28.05.2012 18:01 27,3 C 32 % 1012,3 hPa 0,0 l/m 4,7 km/h (1 Bft) W 270 9,1 C 27,3 C
28.05.2012 18:06 27,4 C 32 % 1012,2 hPa 0,0 l/m 5,8 km/h (2 Bft) NW 315 9,2 C 27,4 C
28.05.2012 18:11 27,5 C 33 % 1012,2 hPa 0,0 l/m 11,9 km/h (2 Bft) W-NW 292 9,8 C 27,5 C
28.05.2012 18:16 27,4 C 33 % 1012,1 hPa 0,0 l/m 3,6 km/h (1 Bft) NO 45 9,7 C 27,4 C
28.05.2012 18:21 26,8 C 32 % 1012,1 hPa 0,0 l/m 2,2 km/h (1 Bft) N 360 8,7 C 26,8 C
28.05.2012 18:26 26,2 C 34 % 1012,1 hPa 0,0 l/m 4,3 km/h (1 Bft) W-NW 292 9,1 C 26,2 C
28.05.2012 18:31 26,1 C 35 % 1012,1 hPa 0,0 l/m 2,5 km/h (1 Bft) NO 45 9,4 C 26,1 C
28.05.2012 18:36 26,2 C 35 % 1012,2 hPa 0,0 l/m 0,0 km/h (0 Bft) N-NW 337 9,5 C 26,2 C
28.05.2012 18:41 26,2 C 35 % 1012,1 hPa 0,0 l/m 10,8 km/h (2 Bft) N-NW 337 9,5 C 26,2 C
28.05.2012 18:46 26,4 C 35 % 1011,9 hPa 0,0 l/m 1,8 km/h (1 Bft) S-SO 157 9,7 C 26,4 C
28.05.2012 18:51 26,4 C 35 % 1012,0 hPa 0,0 l/m 1,8 km/h (1 Bft) N-NO 22 9,7 C 26,4 C
28.05.2012 18:56 26,4 C 35 % 1011,9 hPa 0,0 l/m 1,4 km/h (1 Bft) W 270 9,7 C 26,4 C
28.05.2012 19:01 26,6 C 36 % 1012,0 hPa 0,0 l/m 7,9 km/h (2 Bft) W-NW 292 10,3 C 26,6 C
28.05.2012 19:06 26,8 C 35 % 1012,0 hPa 0,0 l/m 1,1 km/h (1 Bft) NO 45 10,0 C 26,8 C
28.05.2012 19:11 26,8 C 35 % 1012,0 hPa 0,0 l/m 2,5 km/h (1 Bft) NO 45 10,0 C 26,8 C
28.05.2012 19:16 26,3 C 35 % 1012,0 hPa 0,0 l/m 6,1 km/h (2 Bft) W-NW 292 9,6 C 26,3 C
28.05.2012 19:21 26,4 C 36 % 1011,9 hPa 0,0 l/m 2,2 km/h (1 Bft) N-NW 337 10,1 C 26,4 C
28.05.2012 19:26 26,5 C 36 % 1012,0 hPa 0,0 l/m 2,2 km/h (1 Bft) NO 45 10,2 C 26,5 C
28.05.2012 19:31 26,1 C 36 % 1012,0 hPa 0,0 l/m 0,0 km/h (0 Bft) N-NO 22 9,8 C 26,1 C
28.05.2012 19:36 25,6 C 37 % 1012,1 hPa 0,0 l/m 2,2 km/h (1 Bft) NO 45 9,8 C 25,6 C
28.05.2012 19:41 25,3 C 38 % 1012,0 hPa 0,0 l/m 1,1 km/h (1 Bft) NO 45 9,9 C 25,3 C
28.05.2012 19:46 25,1 C 38 % 1011,9 hPa 0,0 l/m 0,0 km/h (0 Bft) N 360 9,8 C 25,1 C
28.05.2012 19:51 25,0 C 39 % 1011,8 hPa 0,0 l/m 0,0 km/h (0 Bft) W-NW 292 10,1 C 25,0 C
28.05.2012 19:56 25,2 C 39 % 1011,8 hPa 0,0 l/m 1,1 km/h (1 Bft) N 360 10,2 C 25,2 C
28.05.2012 20:01 25,3 C 39 % 1011,7 hPa 0,0 l/m 1,4 km/h (1 Bft) W-NW 292 10,3 C 25,3 C
28.05.2012 20:06 25,4 C 39 % 1011,8 hPa 0,0 l/m 0,0 km/h (0 Bft) N-NW 337 10,4 C 25,4 C
28.05.2012 20:11 25,5 C 40 % 1011,7 hPa 0,0 l/m 1,4 km/h (1 Bft) W-NW 292 10,9 C 25,5 C
28.05.2012 20:16 25,6 C 40 % 1011,8 hPa 0,0 l/m 3,2 km/h (1 Bft) NW 315 11,0 C 25,6 C
28.05.2012 20:21 25,6 C 40 % 1011,7 hPa 0,0 l/m 0,0 km/h (0 Bft) W 270 11,0 C 25,6 C
28.05.2012 20:26 25,6 C 41 % 1011,7 hPa 0,0 l/m 2,5 km/h (1 Bft) W-SW 247 11,4 C 25,6 C
28.05.2012 20:31 25,4 C 41 % 1011,6 hPa 0,0 l/m 0,0 km/h (0 Bft) W-SW 247 11,2 C 25,4 C
28.05.2012 20:36 25,3 C 41 % 1011,6 hPa 0,0 l/m 0,0 km/h (0 Bft) W 270 11,1 C 25,3 C
28.05.2012 20:41 25,2 C 42 % 1011,6 hPa 0,0 l/m 1,1 km/h (1 Bft) W 270 11,4 C 25,2 C
28.05.2012 20:46 25,1 C 43 % 1011,6 hPa 0,0 l/m 0,0 km/h (0 Bft) W-SW 247 11,6 C 25,1 C
28.05.2012 20:51 24,9 C 43 % 1011,6 hPa 0,0 l/m 1,4 km/h (1 Bft) W-SW 247 11,4 C 24,9 C
28.05.2012 20:56 24,7 C 44 % 1011,7 hPa 0,0 l/m 0,0 km/h (0 Bft) W 270 11,6 C 24,7 C
28.05.2012 21:01 24,5 C 44 % 1011,7 hPa 0,0 l/m 0,0 km/h (0 Bft) W-SW 247 11,4 C 24,5 C
28.05.2012 21:06 24,3 C 44 % 1011,6 hPa 0,0 l/m 0,0 km/h (0 Bft) W 270 11,3 C 24,3 C
28.05.2012 21:11 24,2 C 44 % 1011,7 hPa 0,0 l/m 0,0 km/h (0 Bft) W-SW 247 11,2 C 24,2 C
28.05.2012 21:16 24,1 C 45 % 1011,7 hPa 0,0 l/m 0,0 km/h (0 Bft) W 270 11,4 C 24,1 C
28.05.2012 21:21 23,9 C 45 % 1011,8 hPa 0,0 l/m 1,4 km/h (1 Bft) W 270 11,2 C 23,9 C
28.05.2012 21:26 23,8 C 46 % 1011,7 hPa 0,0 l/m 2,2 km/h (1 Bft) W-SW 247 11,5 C 23,8 C
28.05.2012 21:31 23,6 C 46 % 1011,8 hPa 0,0 l/m 0,0 km/h (0 Bft) W-SW 247 11,3 C 23,6 C
28.05.2012 21:36 23,5 C 46 % 1011,8 hPa 0,0 l/m 2,5 km/h (1 Bft) W-SW 247 11,2 C 23,5 C
28.05.2012 21:41 23,4 C 46 % 1011,8 hPa 0,0 l/m 0,0 km/h (0 Bft) W-SW 247 11,1 C 23,4 C
28.05.2012 21:46 23,3 C 47 % 1011,8 hPa 0,0 l/m 0,0 km/h (0 Bft) W-SW 247 11,3 C 23,3 C
28.05.2012 21:51 23,1 C 47 % 1011,8 hPa 0,0 l/m 0,0 km/h (0 Bft) W-SW 247 11,2 C 23,1 C
28.05.2012 21:56 22,9 C 47 % 1011,8 hPa 0,0 l/m 0,0 km/h (0 Bft) W-SW 247 11,0 C 22,9 C
28.05.2012 22:01 22,9 C 47 % 1011,8 hPa 0,0 l/m 0,0 km/h (0 Bft) W-SW 247 11,0 C 22,9 C
28.05.2012 22:06 22,7 C 47 % 1011,7 hPa 0,0 l/m 0,0 km/h (0 Bft) W-SW 247 10,8 C 22,7 C
28.05.2012 22:11 22,5 C 48 % 1011,7 hPa 0,0 l/m 0,0 km/h (0 Bft) W-SW 247 10,9 C 22,5 C
28.05.2012 22:16 22,3 C 48 % 1011,7 hPa 0,0 l/m 0,0 km/h (0 Bft) W-SW 247 10,8 C 22,3 C
28.05.2012 22:21 22,2 C 49 % 1011,7 hPa 0,0 l/m 0,0 km/h (0 Bft) W-SW 247 11,0 C 22,2 C
28.05.2012 22:26 21,9 C 49 % 1011,7 hPa 0,0 l/m 0,0 km/h (0 Bft) W-SW 247 10,7 C 21,9 C
28.05.2012 22:31 21,8 C 50 % 1011,7 hPa 0,0 l/m 0,0 km/h (0 Bft) W 270 10,9 C 21,8 C
28.05.2012 22:36 21,8 C 50 % 1011,8 hPa 0,0 l/m 0,0 km/h (0 Bft) W 270 10,9 C 21,8 C
28.05.2012 22:41 21,6 C 51 % 1011,9 hPa 0,0 l/m 0,0 km/h (0 Bft) W-NW 292 11,0 C 21,6 C
28.05.2012 22:46 21,4 C 52 % 1011,8 hPa 0,0 l/m 0,0 km/h (0 Bft) W-NW 292 11,1 C 21,4 C
28.05.2012 22:51 21,2 C 53 % 1011,9 hPa 0,0 l/m 0,0 km/h (0 Bft) W-NW 292 11,2 C 21,2 C
28.05.2012 22:56 21,1 C 53 % 1012,0 hPa 0,0 l/m 1,4 km/h (1 Bft) W 270 11,1 C 21,1 C
28.05.2012 23:01 20,9 C 54 % 1011,9 hPa 0,0 l/m 0,0 km/h (0 Bft) W 270 11,2 C 20,9 C
28.05.2012 23:06 20,8 C 55 % 1011,8 hPa 0,0 l/m 0,0 km/h (0 Bft) W 270 11,4 C 20,8 C
28.05.2012 23:11 20,7 C 54 % 1011,7 hPa 0,0 l/m 1,8 km/h (1 Bft) W-NW 292 11,1 C 20,7 C
28.05.2012 23:16 20,6 C 54 % 1011,7 hPa 0,0 l/m 0,0 km/h (0 Bft) W-NW 292 11,0 C 20,6 C
28.05.2012 23:21 20,5 C 53 % 1011,7 hPa 0,0 l/m 0,0 km/h (0 Bft) W-NW 292 10,6 C 20,5 C
28.05.2012 23:26 20,5 C 53 % 1011,8 hPa 0,0 l/m 0,0 km/h (0 Bft) W-NW 292 10,6 C 20,5 C
28.05.2012 23:31 20,5 C 53 % 1011,8 hPa 0,0 l/m 1,8 km/h (1 Bft) W-NW 292 10,6 C 20,5 C
28.05.2012 23:36 20,4 C 53 % 1011,7 hPa 0,0 l/m 1,1 km/h (1 Bft) W 270 10,5 C 20,4 C
28.05.2012 23:41 20,4 C 53 % 1011,7 hPa 0,0 l/m 0,0 km/h (0 Bft) W 270 10,5 C 20,4 C
28.05.2012 23:46 20,3 C 54 % 1011,7 hPa 0,0 l/m 0,0 km/h (0 Bft) W 270 10,7 C 20,3 C
28.05.2012 23:51 20,2 C 54 % 1011,7 hPa 0,0 l/m 0,0 km/h (0 Bft) W-NW 292 10,6 C 20,2 C
28.05.2012 23:56 20,1 C 54 % 1011,7 hPa 0,0 l/m 0,0 km/h (0 Bft) W 270 10,5 C 20,1 C
_ Min-Zeit 05:26 16:11 20:31 - 00:26 - - 02:26 05:26
Minimum _ 13,9 C 31 % 1011,6 hPa - 0,0 km/h (0 Bft) - - 5,7 C 13,9 C
_ Max-Zeit 16:41 05:41 00:01 00:01 14:56 - - 20:46 16:41
Maximum _ 27,7 C 62 % 1018,0 hPa 0,0 l/m 12,2 km/h
NO (2 Bft)
- - 11,6 C 27,7 C
Durchschnitt _ 21,2 C 45 % 1014,6 hPa #0,0 l/m 2,9 km/h (1 Bft) O-NO - 8,5 C 21,2 C
(c) by David Heller